sensor_id;sensor_type;location;lat;lon;timestamp;P1;durP1;ratioP1;P2;durP2;ratioP2
16346;SDS011;8283;48.504;13.734;2024-03-23T00:55:21;4.75;;;3.83;;
16346;SDS011;8283;48.504;13.734;2024-03-23T00:57:40;4.82;;;3.55;;
16346;SDS011;8283;48.504;13.734;2024-03-23T01:00:00;6.18;;;3.60;;
16346;SDS011;8283;48.504;13.734;2024-03-23T01:02:19;6.55;;;3.60;;
16346;SDS011;8283;48.504;13.734;2024-03-23T01:04:39;4.68;;;3.53;;
16346;SDS011;8283;48.504;13.734;2024-03-23T01:06:58;4.55;;;3.45;;
16346;SDS011;8283;48.504;13.734;2024-03-23T01:09:17;5.30;;;3.42;;
16346;SDS011;8283;48.504;13.734;2024-03-23T01:11:37;4.97;;;4.20;;
16346;SDS011;8283;48.504;13.734;2024-03-23T01:13:56;4.85;;;3.35;;
16346;SDS011;8283;48.504;13.734;2024-03-23T01:16:15;5.18;;;3.70;;
16346;SDS011;8283;48.504;13.734;2024-03-23T01:18:34;5.13;;;3.60;;
16346;SDS011;8283;48.504;13.734;2024-03-23T01:20:53;3.45;;;3.15;;
16346;SDS011;8283;48.504;13.734;2024-03-23T01:23:13;4.30;;;3.67;;
16346;SDS011;8283;48.504;13.734;2024-03-23T01:25:33;4.45;;;3.55;;
16346;SDS011;8283;48.504;13.734;2024-03-23T01:27:53;6.30;;;3.65;;
16346;SDS011;8283;48.504;13.734;2024-03-23T01:30:12;4.65;;;3.67;;
16346;SDS011;8283;48.504;13.734;2024-03-23T01:32:32;7.25;;;4.40;;
16346;SDS011;8283;48.504;13.734;2024-03-23T01:34:52;3.65;;;3.25;;
16346;SDS011;8283;48.504;13.734;2024-03-23T01:37:11;5.72;;;3.33;;
16346;SDS011;8283;48.504;13.734;2024-03-23T01:39:30;5.05;;;3.95;;
16346;SDS011;8283;48.504;13.734;2024-03-23T01:41:50;5.65;;;3.65;;
16346;SDS011;8283;48.504;13.734;2024-03-23T01:44:10;5.15;;;4.13;;
16346;SDS011;8283;48.504;13.734;2024-03-23T01:46:30;4.65;;;3.75;;
16346;SDS011;8283;48.504;13.734;2024-03-23T01:48:49;5.45;;;4.30;;
16346;SDS011;8283;48.504;13.734;2024-03-23T01:51:09;5.65;;;4.13;;
16346;SDS011;8283;48.504;13.734;2024-03-23T01:53:29;5.88;;;4.53;;
16346;SDS011;8283;48.504;13.734;2024-03-23T01:55:49;5.85;;;4.82;;
16346;SDS011;8283;48.504;13.734;2024-03-23T01:58:10;7.88;;;4.15;;
16346;SDS011;8283;48.504;13.734;2024-03-23T02:00:29;6.20;;;4.10;;
16346;SDS011;8283;48.504;13.734;2024-03-23T02:02:49;5.88;;;4.30;;
16346;SDS011;8283;48.504;13.734;2024-03-23T02:05:08;4.60;;;4.03;;
16346;SDS011;8283;48.504;13.734;2024-03-23T02:07:27;4.55;;;3.75;;
16346;SDS011;8283;48.504;13.734;2024-03-23T02:09:47;4.57;;;3.53;;
16346;SDS011;8283;48.504;13.734;2024-03-23T02:12:06;4.50;;;4.00;;
16346;SDS011;8283;48.504;13.734;2024-03-23T02:14:26;5.70;;;4.22;;
16346;SDS011;8283;48.504;13.734;2024-03-23T02:16:45;5.07;;;3.63;;
16346;SDS011;8283;48.504;13.734;2024-03-23T02:19:06;4.55;;;3.78;;
16346;SDS011;8283;48.504;13.734;2024-03-23T02:21:25;5.65;;;4.05;;
16346;SDS011;8283;48.504;13.734;2024-03-23T02:26:05;3.63;;;3.17;;
16346;SDS011;8283;48.504;13.734;2024-03-23T02:28:24;5.18;;;3.53;;
16346;SDS011;8283;48.504;13.734;2024-03-23T02:30:44;5.78;;;3.65;;
16346;SDS011;8283;48.504;13.734;2024-03-23T02:33:03;3.83;;;3.42;;
16346;SDS011;8283;48.504;13.734;2024-03-23T02:35:23;13.77;;;6.22;;
16346;SDS011;8283;48.504;13.734;2024-03-23T02:37:43;6.30;;;3.92;;
16346;SDS011;8283;48.504;13.734;2024-03-23T02:40:02;8.20;;;4.45;;
16346;SDS011;8283;48.504;13.734;2024-03-23T02:42:22;4.63;;;3.05;;
16346;SDS011;8283;48.504;13.734;2024-03-23T02:44:41;5.95;;;4.20;;
16346;SDS011;8283;48.504;13.734;2024-03-23T02:47:00;4.57;;;3.67;;
16346;SDS011;8283;48.504;13.734;2024-03-23T02:49:20;6.20;;;4.15;;
16346;SDS011;8283;48.504;13.734;2024-03-23T02:51:40;8.20;;;4.47;;
16346;SDS011;8283;48.504;13.734;2024-03-23T02:54:00;5.72;;;3.80;;
16346;SDS011;8283;48.504;13.734;2024-03-23T02:56:19;6.00;;;3.75;;
16346;SDS011;8283;48.504;13.734;2024-03-23T02:58:39;6.35;;;4.20;;
16346;SDS011;8283;48.504;13.734;2024-03-23T03:00:58;5.18;;;3.95;;
16346;SDS011;8283;48.504;13.734;2024-03-23T03:03:17;5.18;;;3.75;;
16346;SDS011;8283;48.504;13.734;2024-03-23T03:05:37;4.82;;;4.05;;
16346;SDS011;8283;48.504;13.734;2024-03-23T03:07:56;4.97;;;4.32;;
16346;SDS011;8283;48.504;13.734;2024-03-23T03:10:15;5.18;;;4.15;;
16346;SDS011;8283;48.504;13.734;2024-03-23T03:12:35;4.30;;;3.75;;
16346;SDS011;8283;48.504;13.734;2024-03-23T03:14:54;4.70;;;3.78;;
16346;SDS011;8283;48.504;13.734;2024-03-23T03:17:13;5.38;;;4.22;;
16346;SDS011;8283;48.504;13.734;2024-03-23T03:19:33;5.85;;;4.05;;
16346;SDS011;8283;48.504;13.734;2024-03-23T03:21:53;5.07;;;3.85;;
16346;SDS011;8283;48.504;13.734;2024-03-23T03:24:12;4.55;;;3.67;;
16346;SDS011;8283;48.504;13.734;2024-03-23T03:26:32;4.55;;;3.55;;
16346;SDS011;8283;48.504;13.734;2024-03-23T03:28:51;5.05;;;3.65;;
16346;SDS011;8283;48.504;13.734;2024-03-23T03:31:11;6.07;;;4.45;;
16346;SDS011;8283;48.504;13.734;2024-03-23T03:33:30;5.68;;;4.20;;
16346;SDS011;8283;48.504;13.734;2024-03-23T03:35:50;6.03;;;4.22;;
16346;SDS011;8283;48.504;13.734;2024-03-23T03:38:10;5.82;;;3.72;;
16346;SDS011;8283;48.504;13.734;2024-03-23T03:40:29;6.35;;;4.65;;
16346;SDS011;8283;48.504;13.734;2024-03-23T03:42:49;4.60;;;4.05;;
16346;SDS011;8283;48.504;13.734;2024-03-23T03:45:08;5.20;;;3.78;;
16346;SDS011;8283;48.504;13.734;2024-03-23T03:47:27;5.45;;;3.90;;
16346;SDS011;8283;48.504;13.734;2024-03-23T03:49:47;5.60;;;3.85;;
16346;SDS011;8283;48.504;13.734;2024-03-23T03:52:06;5.57;;;4.25;;
16346;SDS011;8283;48.504;13.734;2024-03-23T03:54:25;5.97;;;3.90;;
16346;SDS011;8283;48.504;13.734;2024-03-23T03:56:45;5.25;;;4.10;;
16346;SDS011;8283;48.504;13.734;2024-03-23T03:59:04;6.32;;;4.00;;
16346;SDS011;8283;48.504;13.734;2024-03-23T04:01:24;4.22;;;3.67;;
16346;SDS011;8283;48.504;13.734;2024-03-23T04:03:44;4.55;;;3.70;;
16346;SDS011;8283;48.504;13.734;2024-03-23T04:06:03;4.38;;;3.60;;
16346;SDS011;8283;48.504;13.734;2024-03-23T04:08:23;4.72;;;3.47;;
16346;SDS011;8283;48.504;13.734;2024-03-23T04:10:43;5.78;;;4.05;;
16346;SDS011;8283;48.504;13.734;2024-03-23T04:13:02;5.03;;;3.45;;
16346;SDS011;8283;48.504;13.734;2024-03-23T04:15:23;4.30;;;3.58;;
16346;SDS011;8283;48.504;13.734;2024-03-23T04:17:43;4.72;;;3.20;;
16346;SDS011;8283;48.504;13.734;2024-03-23T04:20:03;5.15;;;3.88;;
16346;SDS011;8283;48.504;13.734;2024-03-23T04:22:27;5.70;;;4.18;;
16346;SDS011;8283;48.504;13.734;2024-03-23T04:24:46;7.78;;;4.32;;
16346;SDS011;8283;48.504;13.734;2024-03-23T04:27:06;5.13;;;3.85;;
16346;SDS011;8283;48.504;13.734;2024-03-23T04:29:25;4.93;;;3.10;;
16346;SDS011;8283;48.504;13.734;2024-03-23T04:31:45;4.35;;;3.38;;
16346;SDS011;8283;48.504;13.734;2024-03-23T04:34:05;6.78;;;3.90;;
16346;SDS011;8283;48.504;13.734;2024-03-23T04:36:25;4.30;;;3.53;;
16346;SDS011;8283;48.504;13.734;2024-03-23T04:38:45;3.85;;;3.35;;
16346;SDS011;8283;48.504;13.734;2024-03-23T04:41:09;4.40;;;3.53;;
16346;SDS011;8283;48.504;13.734;2024-03-23T04:43:28;4.57;;;4.13;;
16346;SDS011;8283;48.504;13.734;2024-03-23T04:45:48;4.50;;;3.67;;
16346;SDS011;8283;48.504;13.734;2024-03-23T04:48:08;5.13;;;3.80;;
16346;SDS011;8283;48.504;13.734;2024-03-23T04:50:27;8.43;;;4.18;;
16346;SDS011;8283;48.504;13.734;2024-03-23T04:52:46;5.35;;;4.15;;
16346;SDS011;8283;48.504;13.734;2024-03-23T04:55:06;5.07;;;4.05;;
16346;SDS011;8283;48.504;13.734;2024-03-23T04:57:25;4.88;;;4.13;;
16346;SDS011;8283;48.504;13.734;2024-03-23T04:59:44;5.63;;;3.70;;
16346;SDS011;8283;48.504;13.734;2024-03-23T05:02:03;6.13;;;4.13;;
16346;SDS011;8283;48.504;13.734;2024-03-23T05:04:23;4.78;;;4.05;;
16346;SDS011;8283;48.504;13.734;2024-03-23T05:06:42;4.53;;;3.60;;
16346;SDS011;8283;48.504;13.734;2024-03-23T05:09:02;6.38;;;4.53;;
16346;SDS011;8283;48.504;13.734;2024-03-23T05:11:30;5.15;;;3.65;;
16346;SDS011;8283;48.504;13.734;2024-03-23T05:13:49;4.88;;;4.00;;
16346;SDS011;8283;48.504;13.734;2024-03-23T05:16:08;4.40;;;3.40;;
16346;SDS011;8283;48.504;13.734;2024-03-23T05:18:28;4.68;;;3.70;;
16346;SDS011;8283;48.504;13.734;2024-03-23T05:20:48;6.38;;;3.65;;
16346;SDS011;8283;48.504;13.734;2024-03-23T05:23:07;6.07;;;4.03;;
16346;SDS011;8283;48.504;13.734;2024-03-23T05:25:26;5.43;;;3.70;;
16346;SDS011;8283;48.504;13.734;2024-03-23T05:27:46;5.35;;;4.18;;
16346;SDS011;8283;48.504;13.734;2024-03-23T05:30:06;5.45;;;3.65;;
16346;SDS011;8283;48.504;13.734;2024-03-23T05:32:26;6.55;;;4.60;;
16346;SDS011;8283;48.504;13.734;2024-03-23T05:34:45;7.32;;;4.15;;
16346;SDS011;8283;48.504;13.734;2024-03-23T05:37:05;5.15;;;3.75;;
16346;SDS011;8283;48.504;13.734;2024-03-23T05:39:24;5.93;;;3.67;;
16346;SDS011;8283;48.504;13.734;2024-03-23T05:41:44;6.13;;;4.53;;
16346;SDS011;8283;48.504;13.734;2024-03-23T05:44:03;6.38;;;4.65;;
16346;SDS011;8283;48.504;13.734;2024-03-23T05:46:22;6.45;;;3.90;;
16346;SDS011;8283;48.504;13.734;2024-03-23T05:48:41;6.60;;;4.68;;
16346;SDS011;8283;48.504;13.734;2024-03-23T05:51:01;5.60;;;4.30;;
16346;SDS011;8283;48.504;13.734;2024-03-23T05:53:21;5.97;;;4.53;;
16346;SDS011;8283;48.504;13.734;2024-03-23T05:55:40;5.35;;;4.07;;
16346;SDS011;8283;48.504;13.734;2024-03-23T05:58:00;5.25;;;3.95;;
16346;SDS011;8283;48.504;13.734;2024-03-23T06:00:19;8.35;;;4.63;;
16346;SDS011;8283;48.504;13.734;2024-03-23T06:02:38;9.77;;;4.63;;
16346;SDS011;8283;48.504;13.734;2024-03-23T06:04:58;6.78;;;4.82;;
16346;SDS011;8283;48.504;13.734;2024-03-23T06:07:17;8.25;;;4.60;;
16346;SDS011;8283;48.504;13.734;2024-03-23T06:09:36;6.43;;;4.85;;
16346;SDS011;8283;48.504;13.734;2024-03-23T06:11:55;7.78;;;4.97;;
16346;SDS011;8283;48.504;13.734;2024-03-23T06:14:15;6.43;;;4.43;;
16346;SDS011;8283;48.504;13.734;2024-03-23T06:16:34;7.07;;;4.60;;
16346;SDS011;8283;48.504;13.734;2024-03-23T06:18:53;6.93;;;4.82;;
16346;SDS011;8283;48.504;13.734;2024-03-23T06:21:13;5.78;;;4.50;;
16346;SDS011;8283;48.504;13.734;2024-03-23T06:23:33;6.43;;;4.88;;
16346;SDS011;8283;48.504;13.734;2024-03-23T06:25:52;5.78;;;4.45;;
16346;SDS011;8283;48.504;13.734;2024-03-23T06:28:11;6.65;;;5.10;;
16346;SDS011;8283;48.504;13.734;2024-03-23T06:30:31;5.75;;;4.60;;
16346;SDS011;8283;48.504;13.734;2024-03-23T06:32:51;6.93;;;5.10;;
16346;SDS011;8283;48.504;13.734;2024-03-23T06:35:11;6.05;;;4.50;;
16346;SDS011;8283;48.504;13.734;2024-03-23T06:37:31;7.85;;;5.28;;
16346;SDS011;8283;48.504;13.734;2024-03-23T06:39:50;6.85;;;4.53;;
16346;SDS011;8283;48.504;13.734;2024-03-23T06:42:09;7.35;;;5.00;;
16346;SDS011;8283;48.504;13.734;2024-03-23T06:44:28;7.18;;;4.88;;
16346;SDS011;8283;48.504;13.734;2024-03-23T06:46:48;6.35;;;4.40;;
16346;SDS011;8283;48.504;13.734;2024-03-23T06:49:09;7.72;;;4.55;;
16346;SDS011;8283;48.504;13.734;2024-03-23T06:51:27;6.45;;;5.00;;
16346;SDS011;8283;48.504;13.734;2024-03-23T06:53:49;6.45;;;5.00;;
16346;SDS011;8283;48.504;13.734;2024-03-23T06:56:09;7.25;;;5.10;;
16346;SDS011;8283;48.504;13.734;2024-03-23T06:58:28;6.07;;;5.13;;
16346;SDS011;8283;48.504;13.734;2024-03-23T07:00:48;6.85;;;5.13;;
16346;SDS011;8283;48.504;13.734;2024-03-23T07:03:07;6.45;;;5.13;;
16346;SDS011;8283;48.504;13.734;2024-03-23T07:05:27;7.07;;;5.28;;
16346;SDS011;8283;48.504;13.734;2024-03-23T07:07:46;6.03;;;4.90;;
16346;SDS011;8283;48.504;13.734;2024-03-23T07:10:06;6.35;;;5.03;;
16346;SDS011;8283;48.504;13.734;2024-03-23T07:12:26;8.07;;;5.63;;
16346;SDS011;8283;48.504;13.734;2024-03-23T07:14:45;6.90;;;5.28;;
16346;SDS011;8283;48.504;13.734;2024-03-23T07:17:05;8.93;;;5.93;;
16346;SDS011;8283;48.504;13.734;2024-03-23T07:19:24;8.40;;;5.30;;
16346;SDS011;8283;48.504;13.734;2024-03-23T07:21:43;7.43;;;5.45;;
16346;SDS011;8283;48.504;13.734;2024-03-23T07:24:03;7.72;;;6.45;;
16346;SDS011;8283;48.504;13.734;2024-03-23T07:26:23;7.25;;;5.07;;
16346;SDS011;8283;48.504;13.734;2024-03-23T07:28:43;11.57;;;5.57;;
16346;SDS011;8283;48.504;13.734;2024-03-23T07:31:04;8.20;;;6.00;;
16346;SDS011;8283;48.504;13.734;2024-03-23T07:35:43;7.60;;;5.43;;
16346;SDS011;8283;48.504;13.734;2024-03-23T07:38:03;8.02;;;5.97;;
16346;SDS011;8283;48.504;13.734;2024-03-23T07:40:24;5.80;;;5.03;;
16346;SDS011;8283;48.504;13.734;2024-03-23T07:42:43;7.53;;;6.22;;
16346;SDS011;8283;48.504;13.734;2024-03-23T07:45:03;7.88;;;6.45;;
16346;SDS011;8283;48.504;13.734;2024-03-23T07:47:22;7.80;;;6.38;;
16346;SDS011;8283;48.504;13.734;2024-03-23T07:49:42;10.35;;;6.25;;
16346;SDS011;8283;48.504;13.734;2024-03-23T07:52:01;8.05;;;6.78;;
16346;SDS011;8283;48.504;13.734;2024-03-23T07:54:20;8.05;;;6.07;;
16346;SDS011;8283;48.504;13.734;2024-03-23T07:56:39;7.72;;;6.15;;
16346;SDS011;8283;48.504;13.734;2024-03-23T07:58:59;7.20;;;6.50;;
16346;SDS011;8283;48.504;13.734;2024-03-23T08:01:19;8.63;;;6.28;;
16346;SDS011;8283;48.504;13.734;2024-03-23T08:03:39;7.15;;;6.30;;
16346;SDS011;8283;48.504;13.734;2024-03-23T08:06:12;8.82;;;6.40;;
16346;SDS011;8283;48.504;13.734;2024-03-23T08:08:33;7.30;;;6.22;;
16346;SDS011;8283;48.504;13.734;2024-03-23T08:10:52;7.47;;;6.15;;
16346;SDS011;8283;48.504;13.734;2024-03-23T08:13:12;7.32;;;5.55;;
16346;SDS011;8283;48.504;13.734;2024-03-23T08:15:31;6.47;;;5.55;;
16346;SDS011;8283;48.504;13.734;2024-03-23T08:17:52;7.45;;;5.65;;
16346;SDS011;8283;48.504;13.734;2024-03-23T08:20:11;6.95;;;5.93;;
16346;SDS011;8283;48.504;13.734;2024-03-23T08:22:31;7.28;;;5.40;;
16346;SDS011;8283;48.504;13.734;2024-03-23T08:24:51;5.65;;;4.93;;
16346;SDS011;8283;48.504;13.734;2024-03-23T08:27:10;5.97;;;4.80;;
16346;SDS011;8283;48.504;13.734;2024-03-23T08:29:29;4.97;;;4.47;;
16346;SDS011;8283;48.504;13.734;2024-03-23T08:31:49;4.47;;;4.05;;
16346;SDS011;8283;48.504;13.734;2024-03-23T08:34:08;5.55;;;4.45;;
16346;SDS011;8283;48.504;13.734;2024-03-23T08:36:27;12.55;;;4.85;;
16346;SDS011;8283;48.504;13.734;2024-03-23T08:38:47;4.93;;;4.00;;
16346;SDS011;8283;48.504;13.734;2024-03-23T08:41:09;4.18;;;3.60;;
16346;SDS011;8283;48.504;13.734;2024-03-23T08:43:30;3.28;;;2.60;;
16346;SDS011;8283;48.504;13.734;2024-03-23T08:45:50;3.97;;;3.55;;
16346;SDS011;8283;48.504;13.734;2024-03-23T08:48:10;3.72;;;2.58;;
16346;SDS011;8283;48.504;13.734;2024-03-23T08:50:30;2.88;;;2.20;;
16346;SDS011;8283;48.504;13.734;2024-03-23T08:52:50;2.97;;;2.05;;
16346;SDS011;8283;48.504;13.734;2024-03-23T08:55:10;3.15;;;1.65;;
16346;SDS011;8283;48.504;13.734;2024-03-23T08:57:29;2.47;;;1.63;;
16346;SDS011;8283;48.504;13.734;2024-03-23T08:59:48;1.65;;;1.45;;
16346;SDS011;8283;48.504;13.734;2024-03-23T09:02:08;1.60;;;1.50;;
16346;SDS011;8283;48.504;13.734;2024-03-23T09:04:27;2.90;;;1.27;;
16346;SDS011;8283;48.504;13.734;2024-03-23T09:06:47;3.30;;;1.27;;
16346;SDS011;8283;48.504;13.734;2024-03-23T09:09:06;1.33;;;0.93;;
16346;SDS011;8283;48.504;13.734;2024-03-23T09:11:26;1.38;;;1.10;;
16346;SDS011;8283;48.504;13.734;2024-03-23T09:13:46;1.60;;;1.30;;
16346;SDS011;8283;48.504;13.734;2024-03-23T09:16:06;1.85;;;1.23;;
16346;SDS011;8283;48.504;13.734;2024-03-23T09:18:26;2.67;;;1.13;;
16346;SDS011;8283;48.504;13.734;2024-03-23T09:20:45;1.33;;;1.02;;
16346;SDS011;8283;48.504;13.734;2024-03-23T09:23:05;5.05;;;1.30;;
16346;SDS011;8283;48.504;13.734;2024-03-23T09:25:24;1.35;;;0.90;;
16346;SDS011;8283;48.504;13.734;2024-03-23T09:27:45;2.05;;;0.80;;
16346;SDS011;8283;48.504;13.734;2024-03-23T09:30:06;13.55;;;1.88;;
16346;SDS011;8283;48.504;13.734;2024-03-23T09:32:25;2.40;;;0.83;;
16346;SDS011;8283;48.504;13.734;2024-03-23T09:34:45;1.63;;;1.10;;
16346;SDS011;8283;48.504;13.734;2024-03-23T09:37:04;0.93;;;0.85;;
16346;SDS011;8283;48.504;13.734;2024-03-23T09:39:23;1.30;;;0.80;;
16346;SDS011;8283;48.504;13.734;2024-03-23T09:41:43;0.90;;;0.70;;
16346;SDS011;8283;48.504;13.734;2024-03-23T09:44:02;1.23;;;0.80;;
16346;SDS011;8283;48.504;13.734;2024-03-23T09:46:22;2.85;;;1.00;;
16346;SDS011;8283;48.504;13.734;2024-03-23T09:48:42;2.85;;;1.40;;
16346;SDS011;8283;48.504;13.734;2024-03-23T09:51:05;1.50;;;1.08;;
16346;SDS011;8283;48.504;13.734;2024-03-23T09:53:27;2.47;;;1.17;;
16346;SDS011;8283;48.504;13.734;2024-03-23T09:55:47;2.05;;;1.35;;
16346;SDS011;8283;48.504;13.734;2024-03-23T09:58:08;2.45;;;1.85;;
16346;SDS011;8283;48.504;13.734;2024-03-23T10:00:31;1.27;;;1.17;;
16346;SDS011;8283;48.504;13.734;2024-03-23T10:02:55;1.98;;;1.38;;
16346;SDS011;8283;48.504;13.734;2024-03-23T10:05:19;1.60;;;1.23;;
16346;SDS011;8283;48.504;13.734;2024-03-23T10:07:40;1.50;;;1.15;;
16346;SDS011;8283;48.504;13.734;2024-03-23T10:10:02;1.63;;;1.38;;
16346;SDS011;8283;48.504;13.734;2024-03-23T10:12:29;1.70;;;1.50;;
16346;SDS011;8283;48.504;13.734;2024-03-23T10:14:49;3.13;;;1.42;;
16346;SDS011;8283;48.504;13.734;2024-03-23T10:17:15;2.13;;;1.38;;
16346;SDS011;8283;48.504;13.734;2024-03-23T10:19:39;1.83;;;1.23;;
16346;SDS011;8283;48.504;13.734;2024-03-23T10:22:00;1.25;;;0.90;;
16346;SDS011;8283;48.504;13.734;2024-03-23T10:24:19;1.55;;;1.05;;
16346;SDS011;8283;48.504;13.734;2024-03-23T10:26:39;1.10;;;0.90;;
16346;SDS011;8283;48.504;13.734;2024-03-23T10:28:58;1.13;;;0.90;;
16346;SDS011;8283;48.504;13.734;2024-03-23T10:31:31;1.40;;;1.10;;
16346;SDS011;8283;48.504;13.734;2024-03-23T10:33:50;1.33;;;1.20;;
16346;SDS011;8283;48.504;13.734;2024-03-23T10:36:12;1.08;;;0.75;;
16346;SDS011;8283;48.504;13.734;2024-03-23T10:38:32;1.27;;;0.98;;
16346;SDS011;8283;48.504;13.734;2024-03-23T10:40:52;6.47;;;1.15;;
16346;SDS011;8283;48.504;13.734;2024-03-23T10:43:12;1.00;;;0.80;;
16346;SDS011;8283;48.504;13.734;2024-03-23T10:45:32;1.50;;;0.82;;
16346;SDS011;8283;48.504;13.734;2024-03-23T10:47:51;1.05;;;0.80;;
16346;SDS011;8283;48.504;13.734;2024-03-23T10:50:11;1.13;;;0.70;;
16346;SDS011;8283;48.504;13.734;2024-03-23T10:52:30;0.60;;;0.55;;
16346;SDS011;8283;48.504;13.734;2024-03-23T10:54:50;2.35;;;0.75;;
16346;SDS011;8283;48.504;13.734;2024-03-23T10:57:12;1.10;;;0.60;;
16346;SDS011;8283;48.504;13.734;2024-03-23T10:59:36;1.83;;;1.50;;
16346;SDS011;8283;48.504;13.734;2024-03-23T11:01:57;3.22;;;0.63;;
16346;SDS011;8283;48.504;13.734;2024-03-23T11:04:29;2.90;;;0.80;;
16346;SDS011;8283;48.504;13.734;2024-03-23T11:06:52;6.28;;;3.00;;
16346;SDS011;8283;48.504;13.734;2024-03-23T11:09:37;1.60;;;1.00;;
16346;SDS011;8283;48.504;13.734;2024-03-23T11:11:53;1.20;;;0.90;;
16346;SDS011;8283;48.504;13.734;2024-03-23T11:14:21;1.85;;;1.13;;
16346;SDS011;8283;48.504;13.734;2024-03-23T11:16:42;2.38;;;1.10;;
16346;SDS011;8283;48.504;13.734;2024-03-23T11:21:53;1.47;;;0.80;;
16346;SDS011;8283;48.504;13.734;2024-03-23T11:24:13;1.17;;;0.80;;
16346;SDS011;8283;48.504;13.734;2024-03-23T11:26:35;1.10;;;1.00;;
16346;SDS011;8283;48.504;13.734;2024-03-23T11:29:13;3.13;;;1.40;;
16346;SDS011;8283;48.504;13.734;2024-03-23T11:31:36;1.20;;;0.80;;
16346;SDS011;8283;48.504;13.734;2024-03-23T12:27:11;5.50;;;2.80;;
16346;SDS011;8283;48.504;13.734;2024-03-23T12:29:31;2.53;;;1.80;;
16346;SDS011;8283;48.504;13.734;2024-03-23T12:31:50;1.55;;;1.13;;
16346;SDS011;8283;48.504;13.734;2024-03-23T12:34:10;1.85;;;1.20;;
16346;SDS011;8283;48.504;13.734;2024-03-23T12:36:29;1.63;;;1.13;;
16346;SDS011;8283;48.504;13.734;2024-03-23T12:38:49;1.70;;;1.05;;
16346;SDS011;8283;48.504;13.734;2024-03-23T12:41:08;1.83;;;1.02;;
16346;SDS011;8283;48.504;13.734;2024-03-23T12:43:29;1.33;;;1.00;;
16346;SDS011;8283;48.504;13.734;2024-03-23T12:45:49;1.67;;;1.20;;
16346;SDS011;8283;48.504;13.734;2024-03-23T12:48:08;1.33;;;1.10;;
16346;SDS011;8283;48.504;13.734;2024-03-23T12:50:28;0.90;;;0.75;;
16346;SDS011;8283;48.504;13.734;2024-03-23T12:52:47;0.82;;;0.80;;
16346;SDS011;8283;48.504;13.734;2024-03-23T12:55:07;1.55;;;1.20;;
16346;SDS011;8283;48.504;13.734;2024-03-23T12:57:26;0.93;;;0.75;;
16346;SDS011;8283;48.504;13.734;2024-03-23T12:59:46;2.00;;;1.08;;
16346;SDS011;8283;48.504;13.734;2024-03-23T13:02:10;1.58;;;0.90;;
16346;SDS011;8283;48.504;13.734;2024-03-23T13:04:29;1.20;;;1.00;;
16346;SDS011;8283;48.504;13.734;2024-03-23T13:06:49;1.25;;;0.70;;
16346;SDS011;8283;48.504;13.734;2024-03-23T13:09:08;1.40;;;0.82;;
16346;SDS011;8283;48.504;13.734;2024-03-23T13:11:27;1.70;;;1.13;;
16346;SDS011;8283;48.504;13.734;2024-03-23T13:13:47;1.10;;;1.00;;
16346;SDS011;8283;48.504;13.734;2024-03-23T13:16:06;1.08;;;0.70;;
16346;SDS011;8283;48.504;13.734;2024-03-23T13:18:25;1.13;;;1.02;;
16346;SDS011;8283;48.504;13.734;2024-03-23T13:20:45;2.00;;;1.13;;
16346;SDS011;8283;48.504;13.734;2024-03-23T13:23:04;0.75;;;0.70;;
16346;SDS011;8283;48.504;13.734;2024-03-23T13:25:23;1.00;;;0.90;;
16346;SDS011;8283;48.504;13.734;2024-03-23T13:27:42;0.52;;;0.52;;
16346;SDS011;8283;48.504;13.734;2024-03-23T13:30:02;0.75;;;0.70;;
16346;SDS011;8283;48.504;13.734;2024-03-23T13:32:22;1.10;;;1.00;;
16346;SDS011;8283;48.504;13.734;2024-03-23T13:34:41;2.17;;;1.08;;
16346;SDS011;8283;48.504;13.734;2024-03-23T13:37:01;1.00;;;0.85;;
16346;SDS011;8283;48.504;13.734;2024-03-23T13:39:20;1.38;;;1.20;;
16346;SDS011;8283;48.504;13.734;2024-03-23T13:41:42;23.98;;;10.55;;
16346;SDS011;8283;48.504;13.734;2024-03-23T13:44:03;3.90;;;2.15;;
16346;SDS011;8283;48.504;13.734;2024-03-23T13:46:22;6.35;;;2.92;;
16346;SDS011;8283;48.504;13.734;2024-03-23T13:48:41;4.82;;;2.47;;
16346;SDS011;8283;48.504;13.734;2024-03-23T13:51:02;3.10;;;1.65;;
16346;SDS011;8283;48.504;13.734;2024-03-23T13:53:22;3.92;;;2.67;;
16346;SDS011;8283;48.504;13.734;2024-03-23T13:55:48;3.60;;;2.28;;
16346;SDS011;8283;48.504;13.734;2024-03-23T13:58:08;1.73;;;1.38;;
16346;SDS011;8283;48.504;13.734;2024-03-23T14:00:29;2.17;;;1.10;;
16346;SDS011;8283;48.504;13.734;2024-03-23T14:02:51;1.25;;;1.15;;
16346;SDS011;8283;48.504;13.734;2024-03-23T14:05:10;18.98;;;8.18;;
16346;SDS011;8283;48.504;13.734;2024-03-23T14:07:30;4.10;;;1.73;;
16346;SDS011;8283;48.504;13.734;2024-03-23T14:09:49;1.98;;;1.63;;
16346;SDS011;8283;48.504;13.734;2024-03-23T14:12:13;1.75;;;1.17;;
16346;SDS011;8283;48.504;13.734;2024-03-23T14:14:33;1.35;;;0.95;;
16346;SDS011;8283;48.504;13.734;2024-03-23T14:16:52;1.50;;;1.17;;
16346;SDS011;8283;48.504;13.734;2024-03-23T14:19:11;1.38;;;1.20;;
16346;SDS011;8283;48.504;13.734;2024-03-23T14:21:31;1.20;;;1.02;;
16346;SDS011;8283;48.504;13.734;2024-03-23T14:23:50;1.92;;;1.00;;
16346;SDS011;8283;48.504;13.734;2024-03-23T14:26:09;1.77;;;0.95;;
16346;SDS011;8283;48.504;13.734;2024-03-23T14:28:29;1.48;;;1.30;;
16346;SDS011;8283;48.504;13.734;2024-03-23T14:30:49;1.58;;;1.20;;
16346;SDS011;8283;48.504;13.734;2024-03-23T14:33:13;1.60;;;1.20;;
16346;SDS011;8283;48.504;13.734;2024-03-23T14:35:33;2.58;;;1.85;;
16346;SDS011;8283;48.504;13.734;2024-03-23T14:37:52;3.58;;;1.40;;
16346;SDS011;8283;48.504;13.734;2024-03-23T14:40:12;1.77;;;1.42;;
16346;SDS011;8283;48.504;13.734;2024-03-23T14:42:31;1.65;;;1.20;;
16346;SDS011;8283;48.504;13.734;2024-03-23T14:44:51;1.10;;;1.00;;
16346;SDS011;8283;48.504;13.734;2024-03-23T14:47:12;2.50;;;1.30;;
16346;SDS011;8283;48.504;13.734;2024-03-23T14:49:31;1.13;;;1.02;;
16346;SDS011;8283;48.504;13.734;2024-03-23T14:51:50;2.28;;;1.63;;
16346;SDS011;8283;48.504;13.734;2024-03-23T14:54:09;1.50;;;1.10;;
16346;SDS011;8283;48.504;13.734;2024-03-23T14:56:29;3.97;;;1.90;;
16346;SDS011;8283;48.504;13.734;2024-03-23T14:58:51;4.63;;;2.10;;
16346;SDS011;8283;48.504;13.734;2024-03-23T15:01:11;5.25;;;2.60;;
16346;SDS011;8283;48.504;13.734;2024-03-23T15:03:30;3.60;;;1.90;;
16346;SDS011;8283;48.504;13.734;2024-03-23T15:05:57;2.78;;;1.67;;
16346;SDS011;8283;48.504;13.734;2024-03-23T15:08:18;1.73;;;1.25;;
16346;SDS011;8283;48.504;13.734;2024-03-23T15:10:38;1.00;;;0.90;;
16346;SDS011;8283;48.504;13.734;2024-03-23T15:12:58;1.40;;;1.30;;
16346;SDS011;8283;48.504;13.734;2024-03-23T15:15:18;1.60;;;1.30;;
16346;SDS011;8283;48.504;13.734;2024-03-23T15:17:37;2.65;;;1.10;;
16346;SDS011;8283;48.504;13.734;2024-03-23T15:20:00;1.30;;;1.20;;
16346;SDS011;8283;48.504;13.734;2024-03-23T15:22:19;1.33;;;1.23;;
16346;SDS011;8283;48.504;13.734;2024-03-23T15:26:59;1.20;;;1.00;;
16346;SDS011;8283;48.504;13.734;2024-03-23T15:29:18;1.30;;;1.10;;
16346;SDS011;8283;48.504;13.734;2024-03-23T15:31:40;1.38;;;1.27;;
16346;SDS011;8283;48.504;13.734;2024-03-23T15:34:00;1.70;;;1.30;;
16346;SDS011;8283;48.504;13.734;2024-03-23T15:36:19;1.55;;;0.80;;
16346;SDS011;8283;48.504;13.734;2024-03-23T15:38:39;2.60;;;1.15;;
16346;SDS011;8283;48.504;13.734;2024-03-23T15:40:58;1.08;;;0.98;;
16346;SDS011;8283;48.504;13.734;2024-03-23T15:43:18;2.03;;;1.25;;
16346;SDS011;8283;48.504;13.734;2024-03-23T15:45:38;2.03;;;1.48;;
16346;SDS011;8283;48.504;13.734;2024-03-23T15:47:57;2.83;;;1.90;;
16346;SDS011;8283;48.504;13.734;2024-03-23T15:50:16;1.83;;;1.20;;
16346;SDS011;8283;48.504;13.734;2024-03-23T15:52:36;1.10;;;1.00;;
16346;SDS011;8283;48.504;13.734;2024-03-23T15:54:55;2.38;;;1.50;;
16346;SDS011;8283;48.504;13.734;2024-03-23T15:57:16;1.42;;;1.23;;
16346;SDS011;8283;48.504;13.734;2024-03-23T15:59:39;1.27;;;1.13;;
16346;SDS011;8283;48.504;13.734;2024-03-23T16:01:59;1.92;;;1.15;;